createdAt,value
2019-04-11T00:01:10.157Z,100343.58
2019-04-11T00:03:57.965Z,100351.06
2019-04-11T00:09:20.726Z,100355.53
2019-04-11T00:11:50.337Z,100355.33
2019-04-11T00:14:20.071Z,100359.03
2019-04-11T00:16:50.233Z,100363.94
2019-04-11T00:19:37.988Z,100360.02
2019-04-11T00:22:25.762Z,100361.52
2019-04-11T00:24:55.434Z,100358.85
2019-04-11T00:27:24.631Z,100359.06
2019-04-11T00:29:55.475Z,100363.38
2019-04-11T00:32:44.136Z,100345.91
2019-04-11T00:35:32.030Z,100360.66
2019-04-11T00:38:01.420Z,100360.99
2019-04-11T00:40:30.667Z,100365.88
2019-04-11T00:42:59.162Z,100363.32
2019-04-11T00:45:47.694Z,100360.59
2019-04-11T00:48:17.601Z,100360.38
2019-04-11T00:51:07.606Z,100354.16
2019-04-11T00:56:12.331Z,100355.39
2019-04-11T00:59:00.620Z,100354.77
2019-04-11T01:01:29.145Z,100356.77
2019-04-11T01:06:45.150Z,100365.16
2019-04-11T01:09:13.602Z,100369.00
2019-04-11T01:12:02.398Z,100369.55
2019-04-11T01:14:32.034Z,100363.38
2019-04-11T01:19:51.163Z,100369.25
2019-04-11T01:22:22.129Z,100366.16
2019-04-11T01:28:04.694Z,100372.64
2019-04-11T01:34:10.628Z,100375.12
2019-04-11T01:36:59.657Z,100376.03
2019-04-11T01:39:47.679Z,100368.09
2019-04-11T01:45:45.559Z,100371.66
2019-04-11T01:51:23.683Z,100366.41
2019-04-11T01:53:52.212Z,100366.42
2019-04-11T01:59:13.929Z,100370.34
2019-04-11T02:02:01.757Z,100375.18
2019-04-11T02:04:49.335Z,100380.42
2019-04-11T02:07:37.104Z,100376.49
2019-04-11T02:10:45.482Z,100379.11
2019-04-11T02:13:34.177Z,100381.70
2019-04-11T02:19:32.369Z,100383.89
2019-04-11T02:22:20.181Z,100389.07
2019-04-11T02:25:08.163Z,100386.05
2019-04-11T02:30:47.680Z,100399.08
2019-04-11T02:33:17.715Z,100398.70
2019-04-11T02:36:27.095Z,100401.70
2019-04-11T02:42:45.497Z,100406.61
2019-04-11T02:46:08.790Z,100413.14
2019-04-11T02:48:24.538Z,100414.34
2019-04-11T02:51:14.629Z,100409.57
2019-04-11T02:53:45.171Z,100417.83
2019-04-11T03:02:19.386Z,100424.31
2019-04-11T03:05:07.636Z,100421.76
2019-04-11T03:07:57.985Z,100422.58
2019-04-11T03:10:27.131Z,100427.29
2019-04-11T03:13:38.083Z,100432.92
2019-04-11T03:16:38.119Z,100437.27
2019-04-11T03:19:47.741Z,100438.25
2019-04-11T03:22:26.952Z,100440.34
2019-04-11T03:28:14.917Z,100443.27
2019-04-11T03:39:56.835Z,100447.35
2019-04-11T03:43:04.315Z,100450.40
2019-04-11T03:46:15.952Z,100447.32
2019-04-11T03:54:36.262Z,100457.59
2019-04-11T04:00:35.424Z,100462.20
2019-04-11T04:03:01.505Z,100466.37
2019-04-11T04:06:10.153Z,100469.24
2019-04-11T04:09:20.898Z,100475.83
2019-04-11T04:18:21.210Z,100486.41
2019-04-11T04:21:31.188Z,100483.73
2019-04-11T04:24:03.226Z,100489.73
2019-04-11T04:27:10.421Z,100492.91
2019-04-11T04:32:33.781Z,100491.36
2019-04-11T04:41:39.378Z,100496.90
2019-04-11T04:44:24.234Z,100500.88
2019-04-11T04:49:28.167Z,100507.49
2019-04-11T04:51:57.153Z,100507.96
2019-04-11T04:54:25.700Z,100509.30
2019-04-11T04:56:54.661Z,100512.83
2019-04-11T04:59:44.816Z,100521.58
2019-04-11T05:02:14.976Z,100516.77
2019-04-11T05:04:45.779Z,100523.34
2019-04-11T05:07:38.000Z,100525.95
2019-04-11T05:10:44.869Z,100522.45
2019-04-11T05:16:16.804Z,100536.52
2019-04-11T05:21:12.779Z,100538.69
2019-04-11T05:23:41.881Z,100538.13
2019-04-11T05:26:29.489Z,100547.70
2019-04-11T05:28:57.944Z,100543.25
2019-04-11T05:31:46.977Z,100549.28
2019-04-11T05:34:16.132Z,100551.97
2019-04-11T05:36:44.995Z,100554.22
2019-04-11T05:39:16.002Z,100551.98
2019-04-11T05:41:46.807Z,100563.80
2019-04-11T05:44:15.136Z,100573.27
2019-04-11T05:46:52.378Z,100568.84
2019-04-11T05:52:22.072Z,100567.05
2019-04-11T06:01:14.434Z,100568.34
2019-04-11T06:03:45.330Z,100571.56
2019-04-11T06:12:17.166Z,100576.95
2019-04-11T06:15:05.989Z,100583.09
2019-04-11T06:17:34.479Z,100580.87
2019-04-11T06:20:41.389Z,100592.20
2019-04-11T06:23:29.627Z,100598.44
2019-04-11T06:26:18.747Z,100599.06
2019-04-11T06:31:46.053Z,100600.53
2019-04-11T06:34:15.533Z,100609.59
2019-04-11T06:37:03.829Z,100611.48
2019-04-11T06:39:51.610Z,100606.08
2019-04-11T06:42:39.351Z,100600.84
2019-04-11T06:45:48.113Z,100607.34
2019-04-11T06:48:38.067Z,100619.30
2019-04-11T06:51:46.343Z,100620.05
2019-04-11T06:54:33.942Z,100613.38
2019-04-11T07:08:02.087Z,100624.63
2019-04-11T07:10:51.082Z,100619.23
2019-04-11T07:13:39.955Z,100641.29
2019-04-11T07:16:09.042Z,100623.61
2019-04-11T07:18:57.737Z,100635.62
2019-04-11T07:24:34.621Z,100636.28
2019-04-11T07:30:11.454Z,100628.57
2019-04-11T07:32:40.625Z,100641.20
2019-04-11T07:35:29.426Z,100631.87
2019-04-11T07:37:58.239Z,100640.15
2019-04-11T07:40:47.570Z,100657.80
2019-04-11T07:43:18.510Z,100631.62
2019-04-11T07:46:05.482Z,100642.25
2019-04-11T07:48:33.930Z,100641.47
2019-04-11T07:51:40.967Z,100646.95
2019-04-11T07:54:49.331Z,100661.85
2019-04-11T08:00:17.146Z,100651.66
2019-04-11T08:03:06.380Z,100649.03
2019-04-11T08:06:15.533Z,100660.08
2019-04-11T08:14:46.461Z,100657.82
2019-04-11T08:17:39.056Z,100665.77
2019-04-11T08:20:44.162Z,100649.31
2019-04-11T08:23:52.541Z,100657.60
2019-04-11T08:26:59.408Z,100655.47
2019-04-11T08:32:36.130Z,100657.77
2019-04-11T08:35:44.448Z,100661.72
2019-04-11T08:38:53.064Z,100651.31
2019-04-11T08:41:42.209Z,100659.52
2019-04-11T08:44:11.923Z,100659.00
2019-04-11T08:49:50.185Z,100664.41
2019-04-11T08:52:38.519Z,100657.08
2019-04-11T08:55:53.603Z,100663.48
2019-04-11T09:01:25.462Z,100666.33
2019-04-11T09:04:14.972Z,100674.27
2019-04-11T09:15:10.794Z,100659.91
2019-04-11T09:25:54.698Z,100680.33
2019-04-11T09:28:43.925Z,100662.62
2019-04-11T09:31:51.722Z,100666.62
2019-04-11T09:34:39.311Z,100670.67
2019-04-11T09:42:43.011Z,100657.53
2019-04-11T09:45:52.601Z,100659.91
2019-04-11T09:48:42.293Z,100648.79
2019-04-11T09:51:49.919Z,100651.45
2019-04-11T09:54:37.651Z,100657.17
2019-04-11T10:00:55.007Z,100634.64
2019-04-11T10:06:34.364Z,100648.58
2019-04-11T10:15:47.247Z,100637.30
2019-04-11T10:18:38.686Z,100628.29
2019-04-11T10:24:01.051Z,100634.95
2019-04-11T10:29:39.782Z,100632.86
2019-04-11T10:35:19.025Z,100629.67
2019-04-11T10:46:15.414Z,100635.43
2019-04-11T10:49:03.825Z,100621.33
2019-04-11T10:51:51.433Z,100622.04
2019-04-11T10:54:19.889Z,100622.99
2019-04-11T11:02:31.826Z,100626.33
2019-04-11T11:05:01.074Z,100624.47
2019-04-11T11:07:50.954Z,100621.81
2019-04-11T11:10:39.730Z,100617.44
2019-04-11T11:13:28.352Z,100619.24
2019-04-11T11:26:35.632Z,100631.41
2019-04-11T11:29:45.216Z,100627.92
2019-04-11T11:37:47.264Z,100629.52
2019-04-11T11:43:25.263Z,100632.35
2019-04-11T11:46:14.129Z,100635.17
2019-04-11T11:54:17.580Z,100631.83
2019-04-11T11:57:06.642Z,100632.55
2019-04-11T11:59:55.158Z,100637.48
2019-04-11T12:03:03.499Z,100617.91
2019-04-11T12:08:26.553Z,100624.38
2019-04-11T12:14:04.071Z,100627.84
2019-04-11T12:16:59.642Z,100621.92
2019-04-11T12:20:09.681Z,100638.06
2019-04-11T12:25:41.222Z,100631.87
2019-04-11T12:28:29.754Z,100625.03
2019-04-11T12:33:57.706Z,100632.42
2019-04-11T12:39:53.632Z,100638.23
2019-04-11T12:45:51.211Z,100623.02
2019-04-11T12:51:48.726Z,100620.58
2019-04-11T12:57:25.422Z,100616.02
2019-04-11T13:00:12.998Z,100603.09
2019-04-11T13:03:00.634Z,100601.56
2019-04-11T13:06:09.009Z,100598.18
2019-04-11T13:14:15.140Z,100603.51
2019-04-11T13:19:51.827Z,100598.38
2019-04-11T13:25:49.378Z,100602.06
2019-04-11T13:28:37.168Z,100595.48
2019-04-11T13:31:24.772Z,100587.61
2019-04-11T13:37:01.955Z,100602.94
2019-04-11T13:39:49.616Z,100592.09
2019-04-11T13:42:37.220Z,100594.14
2019-04-11T13:45:45.592Z,100587.06
2019-04-11T13:48:33.555Z,100589.67
2019-04-11T13:54:10.316Z,100589.73
2019-04-11T13:56:57.901Z,100586.97
2019-04-11T13:59:45.543Z,100598.77
2019-04-11T14:02:50.599Z,100580.19
2019-04-11T14:16:19.062Z,100594.77
2019-04-11T14:19:07.190Z,100580.56
2019-04-11T14:22:15.765Z,100566.31
2019-04-11T14:25:03.409Z,100578.92
2019-04-11T14:30:52.471Z,100570.28
2019-04-11T14:39:09.001Z,100575.78
2019-04-11T14:41:56.589Z,100572.98
2019-04-11T14:53:28.307Z,100565.17
2019-04-11T14:56:15.885Z,100575.56
2019-04-11T14:59:03.542Z,100576.31
2019-04-11T15:04:43.714Z,100555.97
2019-04-11T15:10:18.703Z,100564.47
2019-04-11T15:16:14.791Z,100571.59
2019-04-11T15:21:51.538Z,100570.20
2019-04-11T15:27:28.293Z,100567.45
2019-04-11T15:33:05.007Z,100579.19
2019-04-11T15:39:00.743Z,100566.73
2019-04-11T15:44:37.427Z,100571.30
2019-04-11T15:47:25.000Z,100576.67
2019-04-11T15:50:12.616Z,100572.28
2019-04-11T15:56:08.630Z,100567.88
2019-04-11T16:01:45.315Z,100571.20
2019-04-11T16:04:32.957Z,100568.84
2019-04-11T16:07:41.368Z,100570.16
2019-04-11T16:10:49.740Z,100573.18
2019-04-11T16:16:16.889Z,100568.91
2019-04-11T16:19:04.465Z,100575.12
2019-04-11T16:21:54.685Z,100576.43
2019-04-11T16:27:49.895Z,100573.98
2019-04-11T16:30:58.267Z,100579.09
2019-04-11T16:36:40.714Z,100587.04
2019-04-11T16:42:17.355Z,100598.83
2019-04-11T16:45:04.997Z,100593.33
2019-04-11T16:50:32.136Z,100594.13
2019-04-11T16:53:00.595Z,100594.38
2019-04-11T16:55:48.444Z,100592.44
2019-04-11T16:58:19.545Z,100598.50
2019-04-11T17:00:52.127Z,100604.29
2019-04-11T17:03:17.496Z,100611.18
2019-04-11T17:06:05.142Z,100604.78
2019-04-11T17:08:56.103Z,100605.70
2019-04-11T17:11:26.732Z,100603.62
2019-04-11T17:13:56.990Z,100607.56
2019-04-11T17:16:23.519Z,100605.44
2019-04-11T17:18:52.051Z,100608.47
2019-04-11T17:24:08.047Z,100613.30
2019-04-11T17:26:55.713Z,100614.75
2019-04-11T17:29:25.010Z,100611.76
2019-04-11T17:37:36.703Z,100619.84
2019-04-11T17:40:45.073Z,100623.15
2019-04-11T17:43:32.758Z,100621.05
2019-04-11T17:46:20.403Z,100622.53
2019-04-11T17:48:50.402Z,100627.88
2019-04-11T17:51:19.130Z,100627.69
2019-04-11T17:53:47.580Z,100624.38
2019-04-11T17:56:16.119Z,100631.25
2019-04-11T17:58:44.590Z,100629.66
2019-04-11T18:01:13.111Z,100628.66
2019-04-11T18:03:42.111Z,100635.80
2019-04-11T18:06:11.773Z,100641.02
2019-04-11T18:08:59.462Z,100643.53
2019-04-11T18:11:47.235Z,100644.69
2019-04-11T18:17:09.457Z,100650.69
2019-04-11T18:19:38.014Z,100653.42
2019-04-11T18:25:14.839Z,100664.28
2019-04-11T18:27:43.286Z,100663.36
2019-04-11T18:30:53.763Z,100665.47
2019-04-11T18:33:21.884Z,100667.35
2019-04-11T18:35:50.406Z,100665.28
2019-04-11T18:38:18.896Z,100678.81
2019-04-11T18:41:06.611Z,100673.47
2019-04-11T18:46:29.773Z,100681.00
2019-04-11T18:49:19.443Z,100686.60
2019-04-11T18:51:47.617Z,100683.94
2019-04-11T18:54:16.075Z,100687.45
2019-04-11T18:56:44.532Z,100688.28
2019-04-11T19:04:58.879Z,100696.33
2019-04-11T19:07:28.202Z,100696.45
2019-04-11T19:09:57.578Z,100704.06
2019-04-11T19:15:00.433Z,100701.63
2019-04-11T19:17:48.230Z,100702.09
2019-04-11T19:20:56.584Z,100705.70
2019-04-11T19:25:59.169Z,100716.95
2019-04-11T19:28:27.618Z,100714.25
2019-04-11T19:31:15.290Z,100714.13
2019-04-11T19:33:43.766Z,100708.93
2019-04-11T19:36:12.852Z,100710.39
2019-04-11T19:41:35.606Z,100714.06
2019-04-11T19:44:44.016Z,100717.71
2019-04-11T19:47:12.462Z,100720.84
2019-04-11T19:49:40.911Z,100720.88
2019-04-11T19:54:43.466Z,100721.25
2019-04-11T19:57:11.951Z,100726.50
2019-04-11T19:59:59.718Z,100730.46
2019-04-11T20:02:47.318Z,100731.16
2019-04-11T20:05:34.909Z,100729.33
2019-04-11T20:08:22.582Z,100728.91
2019-04-11T20:10:51.026Z,100731.52
2019-04-11T20:13:38.906Z,100729.87
2019-04-11T20:16:07.352Z,100732.08
2019-04-11T20:18:35.798Z,100730.46
2019-04-11T20:21:23.773Z,100726.13
2019-04-11T20:23:53.774Z,100725.55
2019-04-11T20:26:41.579Z,100723.92
2019-04-11T20:29:10.030Z,100725.77
2019-04-11T20:31:57.773Z,100730.66
2019-04-11T20:34:45.366Z,100722.36
2019-04-11T20:37:13.854Z,100731.96
2019-04-11T20:39:46.288Z,100733.32
2019-04-11T20:42:12.471Z,100731.21
2019-04-11T20:47:16.790Z,100732.97
2019-04-11T20:52:20.898Z,100731.63
2019-04-11T20:54:49.344Z,100736.97
2019-04-11T20:57:25.690Z,100742.23
2019-04-11T20:59:48.004Z,100733.02
2019-04-11T21:02:35.794Z,100739.55
2019-04-11T21:08:18.338Z,100737.48
2019-04-11T21:11:06.114Z,100743.23
2019-04-11T21:13:38.164Z,100738.80
2019-04-11T21:16:23.972Z,100743.25
2019-04-11T21:21:26.660Z,100746.33
2019-04-11T21:23:55.166Z,100748.09
2019-04-11T21:26:23.600Z,100746.79
2019-04-11T21:28:52.050Z,100751.17
2019-04-11T21:31:20.496Z,100759.08
2019-04-11T21:34:08.231Z,100758.21
2019-04-11T21:36:36.676Z,100756.89
2019-04-11T21:39:45.089Z,100760.84
2019-04-11T21:42:13.537Z,100759.98
2019-04-11T21:44:41.985Z,100768.33
2019-04-11T21:47:29.903Z,100763.48
2019-04-11T21:49:58.350Z,100770.95
2019-04-11T21:55:20.683Z,100777.11
2019-04-11T21:58:08.530Z,100775.78
2019-04-11T22:01:16.874Z,100780.18
2019-04-11T22:04:27.164Z,100784.55
2019-04-11T22:07:35.715Z,100789.81
2019-04-11T22:10:44.115Z,100782.33
2019-04-11T22:13:12.576Z,100786.72
2019-04-11T22:16:00.262Z,100783.61
2019-04-11T22:18:48.025Z,100779.66
2019-04-11T22:21:16.518Z,100778.78
2019-04-11T22:23:48.995Z,100785.38
2019-04-11T22:26:15.146Z,100787.96
2019-04-11T22:28:43.656Z,100788.80
2019-04-11T22:31:12.104Z,100794.06
2019-04-11T22:37:09.574Z,100787.91
2019-04-11T22:39:38.088Z,100787.03
2019-04-11T22:42:25.898Z,100782.60
2019-04-11T22:44:54.351Z,100799.37
2019-04-11T22:47:22.807Z,100798.45
2019-04-11T22:52:25.261Z,100806.30
2019-04-11T22:57:34.198Z,100806.34
2019-04-11T23:00:02.712Z,100800.65
2019-04-11T23:02:50.317Z,100803.66
2019-04-11T23:05:18.766Z,100799.32
2019-04-11T23:07:48.299Z,100807.61
2019-04-11T23:10:36.607Z,100801.03
2019-04-11T23:13:05.134Z,100801.01
2019-04-11T23:15:33.574Z,100810.69
2019-04-11T23:20:35.678Z,100808.41
2019-04-11T23:23:04.134Z,100811.84
2019-04-11T23:25:32.636Z,100815.35
2019-04-11T23:28:01.076Z,100816.25
2019-04-11T23:30:29.518Z,100816.24
2019-04-11T23:35:51.791Z,100811.55
2019-04-11T23:41:14.662Z,100819.06
2019-04-11T23:44:02.510Z,100825.13
2019-04-11T23:46:30.956Z,100828.16
2019-04-11T23:48:59.410Z,100826.53
2019-04-11T23:51:27.894Z,100819.45
2019-04-11T23:54:22.959Z,100826.96
